^^
Vremenska postaja Bezina
 
Daily Summary for November 20, 2018 Units:  Metric    English   Both
Daily Weekly Monthly Yearly Custom
  Current: High: Low: Average:
Temperature: 1.7 °C 1.8 °C 0.4 °C 0.9 °C
Dew Point: 0.9 °C 1.3 °C -0.3 °C 0.2 °C
Humidity: 95% 96% 94% 95%
Wind Speed: 0km/h 12.9km/h 0km/h 1.6km/h
Wind Gust: 1.6km/h 19.3km/h - -
WindCalm - - SE
Pressure: 1012.4 hPa 1015.5 hPa 1012.1 hPa -
Precipitation: 1.52 mm      
Historical Graphs
 
 
Tabular Data for November 20, 2018
Time Temperature Dew Point Pressure Wind Wind Speed Wind Gust Humidity Rainfall Rate (Hourly)
00:15 1.4 °C 0.6 °C 1015.5 hPa East 4.8 km/h 11.3 km/h 94% 0 mm
00:30 1.4 °C 0.6 °C 1015.5 hPa Calm   14.5 km/h 94% 0 mm
00:45 1.3 °C 0.5 °C 1015.1 hPa SE 4.8 km/h 9.7 km/h 94% 0 mm
01:00 1.3 °C 0.4 °C 1015.1 hPa WNW 3.2 km/h 16.1 km/h 94% 0 mm
01:15 1.2 °C 0.3 °C 1015.1 hPa SSE 3.2 km/h 14.5 km/h 94% 0 mm
01:30 1.1 °C 0.2 °C 1015.1 hPa SE 1.6 km/h 12.9 km/h 94% 0 mm
01:45 1 °C 0.2 °C 1015.1 hPa SE 1.6 km/h 11.3 km/h 94% 0 mm
02:00 0.9 °C 0.1 °C 1015.1 hPa ENE 6.4 km/h 11.3 km/h 94% 0 mm
02:15 0.8 °C 0 °C 1015.1 hPa ENE 12.9 km/h 12.9 km/h 94% 0 mm
02:30 0.8 °C -0.1 °C 1014.8 hPa Calm   9.7 km/h 94% 0 mm
02:45 0.8 °C -0.1 °C 1014.8 hPa NE 1.6 km/h 9.7 km/h 94% 0 mm
03:00 0.8 °C -0.1 °C 1014.8 hPa Calm   12.9 km/h 94% 0 mm
03:15 0.8 °C -0.1 °C 1014.4 hPa South 3.2 km/h 17.7 km/h 94% 0 mm
03:30 0.7 °C -0.2 °C 1014.4 hPa East 3.2 km/h 11.3 km/h 94% 0 mm
03:45 0.7 °C -0.2 °C 1014.1 hPa East 1.6 km/h 19.3 km/h 94% 0 mm
04:00 0.7 °C -0.2 °C 1013.8 hPa South 6.4 km/h 14.5 km/h 94% 0 mm
04:15 0.7 °C -0.1 °C 1013.8 hPa South 8 km/h 12.9 km/h 95% 0 mm
04:30 0.7 °C -0.1 °C 1013.4 hPa North 1.6 km/h 19.3 km/h 94% 0 mm
04:45 0.7 °C -0.1 °C 1013.4 hPa SSW 1.6 km/h 14.5 km/h 94% 0 mm
05:00 0.7 °C -0.2 °C 1013.4 hPa Calm   17.7 km/h 94% 0 mm
05:15 0.6 °C -0.1 °C 1013.4 hPa SE 1.6 km/h 6.4 km/h 95% 0 mm
05:30 0.6 °C -0.1 °C 1013.1 hPa Calm   14.5 km/h 95% 0 mm
05:45 0.7 °C -0.1 °C 1013.1 hPa Calm   9.7 km/h 95% 0 mm
06:00 0.6 °C -0.1 °C 1012.8 hPa SSE 3.2 km/h 8 km/h 95% 0 mm
06:15 0.6 °C -0.2 °C 1012.8 hPa Calm   9.7 km/h 95% 0 mm
06:30 0.4 °C -0.3 °C 1012.8 hPa Calm   8 km/h 95% 0 mm
06:45 0.4 °C -0.3 °C 1012.4 hPa Calm   3.2 km/h 95% 0 mm
07:00 0.4 °C -0.3 °C 1012.8 hPa SE 1.6 km/h 6.4 km/h 95% 0 mm
07:15 0.4 °C -0.3 °C 1012.8 hPa SE 3.2 km/h 3.2 km/h 95% 0 mm
07:30 0.5 °C -0.2 °C 1012.4 hPa Calm   6.4 km/h 95% 0 mm
07:45 0.6 °C -0.2 °C 1012.4 hPa Calm   4.8 km/h 95% 0 mm
08:00 0.8 °C 0.3 °C 1012.8 hPa South 1.6 km/h 4.8 km/h 96% 0 mm
08:15 0.9 °C 0.4 °C 1012.8 hPa Calm   6.4 km/h 96% 0 mm
08:30 0.9 °C 0.4 °C 1012.8 hPa SSE 1.6 km/h 3.2 km/h 96% 0.25 mm
08:45 0.8 °C 0.1 °C 1012.8 hPa Calm   3.2 km/h 95% 0.25 mm
09:00 0.8 °C 0.3 °C 1012.8 hPa Calm   1.6 km/h 96% 0.25 mm
09:15 0.8 °C 0.3 °C 1012.8 hPa Calm   1.6 km/h 96% 0.25 mm
09:30 0.9 °C 0.4 °C 1012.8 hPa Calm   3.2 km/h 96% 0 mm
09:45 1 °C 0.4 °C 1012.8 hPa Calm     96% 0 mm
10:00 1.2 °C 0.7 °C 1013.1 hPa Calm     96% 0 mm
10:15 1.4 °C 0.9 °C 1012.8 hPa Calm     96% 0 mm
10:30 1.6 °C 1 °C 1012.8 hPa Calm   1.6 km/h 96% 0 mm
10:45 1.6 °C 1 °C 1012.8 hPa Calm   1.6 km/h 96% 0 mm
11:00 1.7 °C 1.1 °C 1012.8 hPa Calm   1.6 km/h 96% 0 mm
11:15 1.8 °C 1.3 °C 1012.4 hPa Calm   1.6 km/h 96% 0.25 mm
11:30 1.8 °C 1.1 °C 1012.1 hPa Calm   3.2 km/h 95% 0.25 mm
11:45 1.8 °C 1.1 °C 1012.1 hPa Calm   1.6 km/h 95% 0.51 mm
12:00 1.7 °C 1 °C 1012.1 hPa Calm   1.6 km/h 95% 0.76 mm
12:15 1.7 °C 0.9 °C 1012.4 hPa Calm   1.6 km/h 95% 1.02 mm
Juneau County Weather
Compliments of Weather Underground - 1.75 mb